sensor_id;sensor_type;location;lat;lon;timestamp;pressure;altitude;pressure_sealevel;temperature;humidity
23166;BME280;11751;42.700;24.170;2023-11-21T00:02:24;93759.97;;;2.91;100.00
23166;BME280;11751;42.700;24.170;2023-11-21T00:04:50;93779.94;;;3.08;100.00
23166;BME280;11751;42.700;24.170;2023-11-21T00:07:15;93779.66;;;3.11;100.00
23166;BME280;11751;42.700;24.170;2023-11-21T00:09:41;93790.25;;;3.07;100.00
23166;BME280;11751;42.700;24.170;2023-11-21T00:12:08;93786.94;;;3.09;100.00
23166;BME280;11751;42.700;24.170;2023-11-21T00:14:36;93795.78;;;3.07;100.00
23166;BME280;11751;42.700;24.170;2023-11-21T00:17:02;93793.34;;;2.98;100.00
23166;BME280;11751;42.700;24.170;2023-11-21T00:19:27;93788.66;;;2.88;100.00
23166;BME280;11751;42.700;24.170;2023-11-21T00:21:53;93790.31;;;2.96;100.00
23166;BME280;11751;42.700;24.170;2023-11-21T00:24:18;93789.78;;;3.03;100.00
23166;BME280;11751;42.700;24.170;2023-11-21T00:26:44;93778.72;;;3.03;100.00
23166;BME280;11751;42.700;24.170;2023-11-21T00:29:09;93785.72;;;3.04;100.00
23166;BME280;11751;42.700;24.170;2023-11-21T00:31:36;93793.53;;;3.06;100.00
23166;BME280;11751;42.700;24.170;2023-11-21T00:34:04;93788.00;;;3.06;100.00
23166;BME280;11751;42.700;24.170;2023-11-21T00:36:33;93787.50;;;3.02;100.00
23166;BME280;11751;42.700;24.170;2023-11-21T00:38:58;93788.09;;;2.95;100.00
23166;BME280;11751;42.700;24.170;2023-11-21T00:41:24;93785.31;;;2.95;100.00
23166;BME280;11751;42.700;24.170;2023-11-21T00:43:52;93778.06;;;2.92;100.00
23166;BME280;11751;42.700;24.170;2023-11-21T00:46:17;93780.69;;;2.79;100.00
23166;BME280;11751;42.700;24.170;2023-11-21T00:48:43;93783.66;;;2.81;100.00
23166;BME280;11751;42.700;24.170;2023-11-21T00:51:08;93785.13;;;2.87;100.00
23166;BME280;11751;42.700;24.170;2023-11-21T00:53:34;93779.06;;;2.89;100.00
23166;BME280;11751;42.700;24.170;2023-11-21T00:55:59;93794.63;;;2.92;100.00
23166;BME280;11751;42.700;24.170;2023-11-21T00:58:24;93792.31;;;3.01;100.00
23166;BME280;11751;42.700;24.170;2023-11-21T01:00:50;93793.34;;;2.98;100.00
23166;BME280;11751;42.700;24.170;2023-11-21T01:03:16;93789.84;;;2.98;100.00
23166;BME280;11751;42.700;24.170;2023-11-21T01:05:42;93783.78;;;2.99;100.00
23166;BME280;11751;42.700;24.170;2023-11-21T01:08:07;93791.50;;;3.06;100.00
23166;BME280;11751;42.700;24.170;2023-11-21T01:10:32;93790.53;;;3.04;100.00
23166;BME280;11751;42.700;24.170;2023-11-21T01:12:59;93795.03;;;3.07;100.00
23166;BME280;11751;42.700;24.170;2023-11-21T01:15:25;93788.03;;;3.00;100.00
23166;BME280;11751;42.700;24.170;2023-11-21T01:17:51;93789.03;;;3.03;100.00
23166;BME280;11751;42.700;24.170;2023-11-21T01:20:17;93782.75;;;3.02;100.00
23166;BME280;11751;42.700;24.170;2023-11-21T01:22:43;93792.03;;;3.05;100.00
23166;BME280;11751;42.700;24.170;2023-11-21T01:25:09;93781.53;;;2.98;100.00
23166;BME280;11751;42.700;24.170;2023-11-21T01:27:35;93783.00;;;2.99;100.00
23166;BME280;11751;42.700;24.170;2023-11-21T01:30:03;93790.53;;;3.04;100.00
23166;BME280;11751;42.700;24.170;2023-11-21T01:32:28;93773.44;;;3.00;100.00
23166;BME280;11751;42.700;24.170;2023-11-21T01:34:54;93770.63;;;3.05;100.00
23166;BME280;11751;42.700;24.170;2023-11-21T01:37:21;93756.66;;;2.98;100.00
23166;BME280;11751;42.700;24.170;2023-11-21T01:39:47;93757.19;;;2.91;100.00
23166;BME280;11751;42.700;24.170;2023-11-21T01:42:12;93748.44;;;2.87;100.00
23166;BME280;11751;42.700;24.170;2023-11-21T01:44:38;93747.41;;;2.90;100.00
23166;BME280;11751;42.700;24.170;2023-11-21T01:47:05;93749.94;;;2.88;100.00
23166;BME280;11751;42.700;24.170;2023-11-21T01:49:34;93741.41;;;2.86;100.00
23166;BME280;11751;42.700;24.170;2023-11-21T01:52:00;93742.91;;;2.87;100.00
23166;BME280;11751;42.700;24.170;2023-11-21T01:54:25;93737.16;;;2.85;100.00
23166;BME280;11751;42.700;24.170;2023-11-21T01:56:51;93739.34;;;2.92;100.00
23166;BME280;11751;42.700;24.170;2023-11-21T01:59:21;93749.81;;;2.99;100.00
23166;BME280;11751;42.700;24.170;2023-11-21T02:01:47;93755.84;;;3.03;100.00
23166;BME280;11751;42.700;24.170;2023-11-21T02:04:13;93755.06;;;3.08;100.00
23166;BME280;11751;42.700;24.170;2023-11-21T02:06:38;93752.03;;;3.06;100.00
23166;BME280;11751;42.700;24.170;2023-11-21T02:09:04;93756.69;;;2.92;100.00
23166;BME280;11751;42.700;24.170;2023-11-21T02:11:30;93759.41;;;2.98;100.00
23166;BME280;11751;42.700;24.170;2023-11-21T02:13:58;93758.94;;;2.94;100.00
23166;BME280;11751;42.700;24.170;2023-11-21T02:16:24;93764.09;;;3.08;100.00
23166;BME280;11751;42.700;24.170;2023-11-21T02:18:51;93754.56;;;3.04;100.00
23166;BME280;11751;42.700;24.170;2023-11-21T02:21:17;93764.38;;;3.05;100.00
23166;BME280;11751;42.700;24.170;2023-11-21T02:23:44;93767.88;;;3.05;100.00
23166;BME280;11751;42.700;24.170;2023-11-21T02:26:12;93762.28;;;3.11;100.00
23166;BME280;11751;42.700;24.170;2023-11-21T02:28:37;93765.25;;;2.89;100.00
23166;BME280;11751;42.700;24.170;2023-11-21T02:31:04;93765.81;;;2.82;100.00
23166;BME280;11751;42.700;24.170;2023-11-21T02:33:30;93765.56;;;2.80;100.00
23166;BME280;11751;42.700;24.170;2023-11-21T02:35:59;93781.78;;;2.65;100.00
23166;BME280;11751;42.700;24.170;2023-11-21T02:38:25;93768.22;;;2.67;100.00
23166;BME280;11751;42.700;24.170;2023-11-21T02:40:50;93766.22;;;2.62;100.00
23166;BME280;11751;42.700;24.170;2023-11-21T02:43:16;93769.31;;;2.53;100.00
23166;BME280;11751;42.700;24.170;2023-11-21T02:45:41;93755.06;;;2.44;100.00
23166;BME280;11751;42.700;24.170;2023-11-21T02:48:07;93751.31;;;2.41;100.00
23166;BME280;11751;42.700;24.170;2023-11-21T02:50:32;93763.09;;;2.47;100.00
23166;BME280;11751;42.700;24.170;2023-11-21T02:52:58;93757.03;;;2.49;100.00
23166;BME280;11751;42.700;24.170;2023-11-21T02:55:26;93746.34;;;2.34;100.00
23166;BME280;11751;42.700;24.170;2023-11-21T02:57:52;93745.59;;;2.34;100.00
23166;BME280;11751;42.700;24.170;2023-11-21T03:00:17;93753.91;;;2.28;100.00
23166;BME280;11751;42.700;24.170;2023-11-21T03:02:43;93756.44;;;2.26;100.00
23166;BME280;11751;42.700;24.170;2023-11-21T03:05:09;93752.69;;;2.24;100.00
23166;BME280;11751;42.700;24.170;2023-11-21T03:07:36;93745.84;;;2.30;100.00
23166;BME280;11751;42.700;24.170;2023-11-21T03:10:01;93748.84;;;2.32;100.00
23166;BME280;11751;42.700;24.170;2023-11-21T03:12:28;93746.34;;;2.34;100.00
23166;BME280;11751;42.700;24.170;2023-11-21T03:14:53;93751.84;;;2.34;100.00
23166;BME280;11751;42.700;24.170;2023-11-21T03:17:19;93754.91;;;2.31;100.00
23166;BME280;11751;42.700;24.170;2023-11-21T03:19:44;93755.19;;;2.27;100.00
23166;BME280;11751;42.700;24.170;2023-11-21T03:22:10;93744.63;;;2.26;100.00
23166;BME280;11751;42.700;24.170;2023-11-21T03:24:37;93744.91;;;2.22;100.00
23166;BME280;11751;42.700;24.170;2023-11-21T03:27:03;93748.91;;;2.21;100.00
23166;BME280;11751;42.700;24.170;2023-11-21T03:29:29;93747.91;;;2.24;100.00
23166;BME280;11751;42.700;24.170;2023-11-21T03:31:54;93744.16;;;2.22;100.00
23166;BME280;11751;42.700;24.170;2023-11-21T03:34:25;93741.19;;;2.14;100.00
23166;BME280;11751;42.700;24.170;2023-11-21T03:36:54;93740.41;;;2.19;100.00
23166;BME280;11751;42.700;24.170;2023-11-21T03:39:20;93744.69;;;2.20;100.00
23166;BME280;11751;42.700;24.170;2023-11-21T03:41:46;93748.91;;;2.21;100.00
23166;BME280;11751;42.700;24.170;2023-11-21T03:44:12;93753.72;;;2.21;100.00
23166;BME280;11751;42.700;24.170;2023-11-21T03:46:37;93750.66;;;2.24;100.00
23166;BME280;11751;42.700;24.170;2023-11-21T03:49:02;93748.66;;;2.25;100.00
23166;BME280;11751;42.700;24.170;2023-11-21T03:51:28;93751.19;;;2.23;100.00
23166;BME280;11751;42.700;24.170;2023-11-21T03:53:53;93752.41;;;2.27;100.00
23166;BME280;11751;42.700;24.170;2023-11-21T03:56:19;93753.22;;;2.17;100.00
23166;BME280;11751;42.700;24.170;2023-11-21T03:58:47;93751.78;;;2.10;100.00
23166;BME280;11751;42.700;24.170;2023-11-21T04:01:22;93749.00;;;2.10;100.00
23166;BME280;11751;42.700;24.170;2023-11-21T04:03:49;93755.78;;;2.09;100.00
23166;BME280;11751;42.700;24.170;2023-11-21T04:06:14;93751.03;;;2.04;100.00
23166;BME280;11751;42.700;24.170;2023-11-21T04:08:40;93753.03;;;2.09;100.00
23166;BME280;11751;42.700;24.170;2023-11-21T04:11:05;93740.47;;;2.08;100.00
23166;BME280;11751;42.700;24.170;2023-11-21T04:13:31;93745.50;;;2.04;100.00
23166;BME280;11751;42.700;24.170;2023-11-21T04:15:56;93751.53;;;2.08;100.00
23166;BME280;11751;42.700;24.170;2023-11-21T04:18:22;93739.53;;;2.00;100.00
23166;BME280;11751;42.700;24.170;2023-11-21T04:20:48;93744.28;;;2.00;100.00
23166;BME280;11751;42.700;24.170;2023-11-21T04:23:14;93748.09;;;1.91;100.00
23166;BME280;11751;42.700;24.170;2023-11-21T04:25:40;93749.06;;;1.99;100.00
23166;BME280;11751;42.700;24.170;2023-11-21T04:28:06;93766.03;;;2.14;100.00
23166;BME280;11751;42.700;24.170;2023-11-21T04:30:31;93766.53;;;2.18;100.00
23166;BME280;11751;42.700;24.170;2023-11-21T04:32:58;93758.53;;;2.15;100.00
23166;BME280;11751;42.700;24.170;2023-11-21T04:35:23;93760.47;;;2.25;100.00
23166;BME280;11751;42.700;24.170;2023-11-21T04:37:49;93752.41;;;2.27;100.00
23166;BME280;11751;42.700;24.170;2023-11-21T04:40:16;93751.38;;;2.30;100.00
23166;BME280;11751;42.700;24.170;2023-11-21T04:42:41;93749.91;;;2.29;100.00
23166;BME280;11751;42.700;24.170;2023-11-21T04:45:07;93747.13;;;2.29;100.00
23166;BME280;11751;42.700;24.170;2023-11-21T04:47:37;93736.84;;;2.24;100.00
23166;BME280;11751;42.700;24.170;2023-11-21T04:50:03;93746.00;;;2.08;100.00
23166;BME280;11751;42.700;24.170;2023-11-21T04:52:28;93744.44;;;2.18;100.00
23166;BME280;11751;42.700;24.170;2023-11-21T04:54:54;93742.59;;;2.32;100.00
23166;BME280;11751;42.700;24.170;2023-11-21T04:57:20;93735.78;;;2.38;100.00
23166;BME280;11751;42.700;24.170;2023-11-21T04:59:48;93732.75;;;2.36;100.00
23166;BME280;11751;42.700;24.170;2023-11-21T05:02:13;93737.72;;;2.43;100.00
23166;BME280;11751;42.700;24.170;2023-11-21T05:04:38;93739.94;;;2.50;100.00
23166;BME280;11751;42.700;24.170;2023-11-21T05:07:04;93736.38;;;2.55;100.00
23166;BME280;11751;42.700;24.170;2023-11-21T05:09:29;93745.91;;;2.59;100.00
23166;BME280;11751;42.700;24.170;2023-11-21T05:11:57;93752.66;;;2.64;100.00
23166;BME280;11751;42.700;24.170;2023-11-21T05:14:23;93737.56;;;2.65;100.00
23166;BME280;11751;42.700;24.170;2023-11-21T05:16:48;93740.56;;;2.67;100.00
23166;BME280;11751;42.700;24.170;2023-11-21T05:19:16;93738.03;;;2.69;100.00
23166;BME280;11751;42.700;24.170;2023-11-21T05:21:41;93741.53;;;2.69;100.00
23166;BME280;11751;42.700;24.170;2023-11-21T05:24:07;93740.56;;;2.67;100.00
23166;BME280;11751;42.700;24.170;2023-11-21T05:26:32;93737.75;;;2.72;100.00
23166;BME280;11751;42.700;24.170;2023-11-21T05:28:57;93737.28;;;2.68;100.00
23166;BME280;11751;42.700;24.170;2023-11-21T05:31:23;93734.97;;;2.78;100.00
23166;BME280;11751;42.700;24.170;2023-11-21T05:33:48;93743.47;;;2.80;100.00
23166;BME280;11751;42.700;24.170;2023-11-21T05:36:14;93734.13;;;2.83;100.00
23166;BME280;11751;42.700;24.170;2023-11-21T05:38:39;93734.44;;;2.79;100.00
23166;BME280;11751;42.700;24.170;2023-11-21T05:41:04;93723.31;;;2.85;100.00
23166;BME280;11751;42.700;24.170;2023-11-21T05:43:30;93718.25;;;2.89;100.00
23166;BME280;11751;42.700;24.170;2023-11-21T05:45:57;93721.72;;;2.95;100.00
23166;BME280;11751;42.700;24.170;2023-11-21T05:48:23;93727.84;;;2.88;100.00
23166;BME280;11751;42.700;24.170;2023-11-21T05:50:49;93713.56;;;2.78;100.00
23166;BME280;11751;42.700;24.170;2023-11-21T05:53:15;93715.03;;;2.85;100.00
23166;BME280;11751;42.700;24.170;2023-11-21T05:55:41;93732.53;;;2.93;100.00
23166;BME280;11751;42.700;24.170;2023-11-21T05:58:07;93730.31;;;2.91;100.00
23166;BME280;11751;42.700;24.170;2023-11-21T06:00:33;93754.72;;;2.87;100.00
23166;BME280;11751;42.700;24.170;2023-11-21T06:02:58;93752.47;;;2.86;100.00
23166;BME280;11751;42.700;24.170;2023-11-21T06:05:25;93744.97;;;2.81;100.00
23166;BME280;11751;42.700;24.170;2023-11-21T06:07:52;93750.50;;;2.81;100.00
23166;BME280;11751;42.700;24.170;2023-11-21T06:10:20;93748.91;;;2.91;100.00
23166;BME280;11751;42.700;24.170;2023-11-21T06:12:45;93745.81;;;2.70;100.00
23166;BME280;11751;42.700;24.170;2023-11-21T06:15:11;93735.59;;;2.89;100.00
23166;BME280;11751;42.700;24.170;2023-11-21T06:17:40;93746.97;;;3.10;100.00
23166;BME280;11751;42.700;24.170;2023-11-21T06:20:08;93740.59;;;3.20;100.00
23166;BME280;11751;42.700;24.170;2023-11-21T06:22:41;93743.25;;;3.31;100.00
23166;BME280;11751;42.700;24.170;2023-11-21T06:25:07;93749.22;;;3.35;100.00
23166;BME280;11751;42.700;24.170;2023-11-21T06:27:41;93748.47;;;3.35;100.00
23166;BME280;11751;42.700;24.170;2023-11-21T06:30:08;93745.06;;;3.47;100.00
23166;BME280;11751;42.700;24.170;2023-11-21T06:32:35;93757.97;;;3.63;100.00
23166;BME280;11751;42.700;24.170;2023-11-21T06:35:04;93746.91;;;3.63;100.00
23166;BME280;11751;42.700;24.170;2023-11-21T06:37:30;93750.44;;;3.63;100.00
23166;BME280;11751;42.700;24.170;2023-11-21T06:39:57;93747.22;;;3.78;100.00
23166;BME280;11751;42.700;24.170;2023-11-21T06:42:24;93755.34;;;3.94;100.00
23166;BME280;11751;42.700;24.170;2023-11-21T06:44:50;93760.28;;;4.01;100.00
23166;BME280;11751;42.700;24.170;2023-11-21T06:47:19;93772.03;;;4.07;100.00
23166;BME280;11751;42.700;24.170;2023-11-21T06:49:52;93767.91;;;4.14;100.00
23166;BME280;11751;42.700;24.170;2023-11-21T06:52:20;93767.63;;;4.17;100.00
23166;BME280;11751;42.700;24.170;2023-11-21T06:54:47;93768.53;;;4.25;100.00
23166;BME280;11751;42.700;24.170;2023-11-21T06:57:12;93764.13;;;4.17;100.00
23166;BME280;11751;42.700;24.170;2023-11-21T06:59:38;93761.03;;;4.02;100.00
23166;BME280;11751;42.700;24.170;2023-11-21T07:02:04;93755.94;;;4.06;100.00
23166;BME280;11751;42.700;24.170;2023-11-21T07:04:32;93768.88;;;4.16;100.00
23166;BME280;11751;42.700;24.170;2023-11-21T07:06:58;93763.22;;;4.27;100.00
23166;BME280;11751;42.700;24.170;2023-11-21T07:09:23;93750.63;;;4.26;100.00
23166;BME280;11751;42.700;24.170;2023-11-21T07:11:53;93760.00;;;4.23;100.00
23166;BME280;11751;42.700;24.170;2023-11-21T07:14:19;93764.31;;;4.37;100.00
23166;BME280;11751;42.700;24.170;2023-11-21T07:16:45;93757.59;;;4.51;100.00
23166;BME280;11751;42.700;24.170;2023-11-21T07:19:12;93756.59;;;4.67;100.00
23166;BME280;11751;42.700;24.170;2023-11-21T07:21:38;93764.50;;;4.76;100.00
23166;BME280;11751;42.700;24.170;2023-11-21T07:24:05;93764.56;;;4.89;99.46
23166;BME280;11751;42.700;24.170;2023-11-21T07:26:34;93763.34;;;5.03;99.33
23166;BME280;11751;42.700;24.170;2023-11-21T07:29:01;93763.03;;;5.06;99.00
23166;BME280;11751;42.700;24.170;2023-11-21T07:31:27;93759.53;;;5.18;98.22
23166;BME280;11751;42.700;24.170;2023-11-21T07:33:54;93762.72;;;5.09;98.45
23166;BME280;11751;42.700;24.170;2023-11-21T07:36:22;93762.22;;;5.24;98.62
23166;BME280;11751;42.700;24.170;2023-11-21T07:38:47;93756.34;;;5.27;98.88
23166;BME280;11751;42.700;24.170;2023-11-21T07:41:13;93758.47;;;5.21;99.30
23166;BME280;11751;42.700;24.170;2023-11-21T07:43:43;93749.72;;;5.17;100.00
23166;BME280;11751;42.700;24.170;2023-11-21T07:46:08;93747.19;;;5.32;100.00
23166;BME280;11751;42.700;24.170;2023-11-21T07:48:34;93755.09;;;5.41;100.00
23166;BME280;11751;42.700;24.170;2023-11-21T07:51:01;93755.31;;;5.56;99.98
23166;BME280;11751;42.700;24.170;2023-11-21T07:53:28;93747.41;;;5.73;99.01
23166;BME280;11751;42.700;24.170;2023-11-21T07:56:02;93750.88;;;5.92;98.65
23166;BME280;11751;42.700;24.170;2023-11-21T07:58:27;93744.88;;;6.01;97.75
23166;BME280;11751;42.700;24.170;2023-11-21T08:00:53;93747.19;;;6.23;96.94
23166;BME280;11751;42.700;24.170;2023-11-21T08:03:19;93737.97;;;6.41;96.30
23166;BME280;11751;42.700;24.170;2023-11-21T08:05:44;93751.81;;;6.54;95.41
23166;BME280;11751;42.700;24.170;2023-11-21T08:08:10;93739.16;;;6.66;95.03
23166;BME280;11751;42.700;24.170;2023-11-21T08:10:35;93737.28;;;6.81;94.30
23166;BME280;11751;42.700;24.170;2023-11-21T08:13:01;93736.34;;;6.99;94.13
23166;BME280;11751;42.700;24.170;2023-11-21T08:15:27;93736.44;;;7.06;92.96
23166;BME280;11751;42.700;24.170;2023-11-21T08:17:52;93740.47;;;7.26;92.92
23166;BME280;11751;42.700;24.170;2023-11-21T08:20:17;93739.06;;;7.32;92.71
23166;BME280;11751;42.700;24.170;2023-11-21T08:22:44;93747.56;;;7.47;92.10
23166;BME280;11751;42.700;24.170;2023-11-21T08:25:09;93738.41;;;7.67;91.71
23166;BME280;11751;42.700;24.170;2023-11-21T08:27:35;93745.06;;;7.64;90.65
23166;BME280;11751;42.700;24.170;2023-11-21T08:30:02;93733.00;;;7.69;89.21
23166;BME280;11751;42.700;24.170;2023-11-21T08:32:28;93734.41;;;7.83;88.67
23166;BME280;11751;42.700;24.170;2023-11-21T08:34:55;93729.72;;;8.06;88.82
23166;BME280;11751;42.700;24.170;2023-11-21T08:37:20;93724.44;;;8.23;88.19
23166;BME280;11751;42.700;24.170;2023-11-21T08:39:47;93729.38;;;8.45;86.71
23166;BME280;11751;42.700;24.170;2023-11-21T08:42:13;93720.50;;;8.53;85.79
23166;BME280;11751;42.700;24.170;2023-11-21T08:44:39;93709.72;;;8.65;84.91
23166;BME280;11751;42.700;24.170;2023-11-21T08:47:05;93709.63;;;8.85;83.80
23166;BME280;11751;42.700;24.170;2023-11-21T08:49:31;93712.97;;;9.06;82.76
23166;BME280;11751;42.700;24.170;2023-11-21T08:51:56;93715.97;;;9.08;83.43
23166;BME280;11751;42.700;24.170;2023-11-21T08:54:24;93712.25;;;9.13;84.28
23166;BME280;11751;42.700;24.170;2023-11-21T08:56:51;93709.28;;;9.26;84.75
23166;BME280;11751;42.700;24.170;2023-11-21T08:59:16;93702.00;;;9.31;84.83
23166;BME280;11751;42.700;24.170;2023-11-21T09:01:41;93702.41;;;9.34;84.17
23166;BME280;11751;42.700;24.170;2023-11-21T09:04:07;93698.47;;;9.52;84.52
23166;BME280;11751;42.700;24.170;2023-11-21T09:06:32;93696.97;;;9.66;84.14
23166;BME280;11751;42.700;24.170;2023-11-21T09:08:58;93683.72;;;9.82;83.55
23166;BME280;11751;42.700;24.170;2023-11-21T09:11:23;93685.00;;;9.96;83.84
23166;BME280;11751;42.700;24.170;2023-11-21T09:13:51;93678.63;;;10.10;83.19
23166;BME280;11751;42.700;24.170;2023-11-21T09:16:17;93679.41;;;10.11;82.52
23166;BME280;11751;42.700;24.170;2023-11-21T09:18:42;93683.44;;;10.24;82.92
23166;BME280;11751;42.700;24.170;2023-11-21T09:21:08;93677.44;;;10.35;81.39
23166;BME280;11751;42.700;24.170;2023-11-21T09:23:34;93668.44;;;10.44;82.02
23166;BME280;11751;42.700;24.170;2023-11-21T09:25:59;93665.03;;;10.53;81.96
23166;BME280;11751;42.700;24.170;2023-11-21T09:28:26;93664.97;;;10.68;81.73
23166;BME280;11751;42.700;24.170;2023-11-21T09:30:53;93653.78;;;10.68;81.10
23166;BME280;11751;42.700;24.170;2023-11-21T09:33:18;93655.97;;;10.77;80.96
23166;BME280;11751;42.700;24.170;2023-11-21T09:35:44;93653.16;;;10.77;79.96
23166;BME280;11751;42.700;24.170;2023-11-21T09:38:09;93650.25;;;10.92;79.26
23166;BME280;11751;42.700;24.170;2023-11-21T09:40:36;93644.66;;;10.92;79.77
23166;BME280;11751;42.700;24.170;2023-11-21T09:43:07;93645.69;;;11.04;79.35
23166;BME280;11751;42.700;24.170;2023-11-21T09:45:38;93632.31;;;10.95;79.28
23166;BME280;11751;42.700;24.170;2023-11-21T09:48:04;93629.66;;;11.05;79.03
23166;BME280;11751;42.700;24.170;2023-11-21T09:50:32;93627.31;;;11.18;78.18
23166;BME280;11751;42.700;24.170;2023-11-21T09:53:17;93618.53;;;11.38;77.67
23166;BME280;11751;42.700;24.170;2023-11-21T09:55:47;93608.13;;;11.56;78.84
23166;BME280;11751;42.700;24.170;2023-11-21T09:58:14;93614.31;;;11.71;76.38
23166;BME280;11751;42.700;24.170;2023-11-21T10:00:47;93606.91;;;11.83;77.15
23166;BME280;11751;42.700;24.170;2023-11-21T10:03:14;93585.06;;;11.98;76.56
23166;BME280;11751;42.700;24.170;2023-11-21T10:05:41;93613.06;;;12.32;76.16
23166;BME280;11751;42.700;24.170;2023-11-21T10:08:08;93597.63;;;12.41;75.06
23166;BME280;11751;42.700;24.170;2023-11-21T10:10:38;93600.19;;;12.46;75.08
23166;BME280;11751;42.700;24.170;2023-11-21T10:13:11;93591.75;;;12.46;74.66
23166;BME280;11751;42.700;24.170;2023-11-21T10:15:37;93576.31;;;12.38;72.95
23166;BME280;11751;42.700;24.170;2023-11-21T10:18:04;93567.13;;;12.54;73.21
23166;BME280;11751;42.700;24.170;2023-11-21T10:20:31;93574.00;;;12.70;72.39
23166;BME280;11751;42.700;24.170;2023-11-21T10:22:59;93557.50;;;12.83;72.37
23166;BME280;11751;42.700;24.170;2023-11-21T10:25:24;93546.53;;;12.78;71.95
23166;BME280;11751;42.700;24.170;2023-11-21T10:27:57;93528.31;;;12.96;71.55
23166;BME280;11751;42.700;24.170;2023-11-21T10:30:27;93506.72;;;13.08;70.57
23166;BME280;11751;42.700;24.170;2023-11-21T10:32:58;93492.09;;;13.09;70.70
23166;BME280;11751;42.700;24.170;2023-11-21T10:35:24;93493.88;;;13.14;70.12
23166;BME280;11751;42.700;24.170;2023-11-21T10:37:59;93510.22;;;13.35;69.60
23166;BME280;11751;42.700;24.170;2023-11-21T10:40:27;93517.47;;;13.38;70.40
23166;BME280;11751;42.700;24.170;2023-11-21T10:42:54;93511.84;;;13.38;70.20
23166;BME280;11751;42.700;24.170;2023-11-21T10:45:19;93521.19;;;13.40;68.95
23166;BME280;11751;42.700;24.170;2023-11-21T10:47:47;93517.28;;;13.26;69.04
23166;BME280;11751;42.700;24.170;2023-11-21T10:50:18;93507.53;;;13.37;68.99
23166;BME280;11751;42.700;24.170;2023-11-21T10:52:44;93510.66;;;13.41;68.97
23166;BME280;11751;42.700;24.170;2023-11-21T10:55:19;93508.59;;;13.32;68.81
23166;BME280;11751;42.700;24.170;2023-11-21T10:57:49;93511.34;;;13.22;67.45
23166;BME280;11751;42.700;24.170;2023-11-21T11:00:16;93502.97;;;13.32;66.81
23166;BME280;11751;42.700;24.170;2023-11-21T11:02:44;93513.47;;;13.31;67.04
23166;BME280;11751;42.700;24.170;2023-11-21T11:05:14;93510.06;;;13.33;65.67
23166;BME280;11751;42.700;24.170;2023-11-21T11:07:41;93514.97;;;13.42;65.60
23166;BME280;11751;42.700;24.170;2023-11-21T11:10:08;93511.72;;;13.36;64.60
23166;BME280;11751;42.700;24.170;2023-11-21T11:12:39;93508.19;;;13.64;64.00
23166;BME280;11751;42.700;24.170;2023-11-21T11:15:05;93511.28;;;13.67;64.36
23166;BME280;11751;42.700;24.170;2023-11-21T11:17:33;93501.69;;;13.80;63.65
23166;BME280;11751;42.700;24.170;2023-11-21T11:19:59;93498.53;;;13.85;62.76
23166;BME280;11751;42.700;24.170;2023-11-21T11:28:16;93491.44;;;14.03;60.44
23166;BME280;11751;42.700;24.170;2023-11-21T11:31:14;93487.56;;;14.08;60.07
23166;BME280;11751;42.700;24.170;2023-11-21T11:34:11;93490.25;;;14.25;61.28
23166;BME280;11751;42.700;24.170;2023-11-21T11:37:14;93484.84;;;14.48;60.13
23166;BME280;11751;42.700;24.170;2023-11-21T11:39:42;93485.41;;;14.56;59.09
23166;BME280;11751;42.700;24.170;2023-11-21T11:42:15;93481.72;;;14.53;58.81
23166;BME280;11751;42.700;24.170;2023-11-21T11:49:57;93467.63;;;14.63;58.55
23166;BME280;11751;42.700;24.170;2023-11-21T11:52:53;93466.31;;;14.54;57.67
23166;BME280;11751;42.700;24.170;2023-11-21T11:55:23;93466.16;;;14.62;57.46
23166;BME280;11751;42.700;24.170;2023-11-21T11:57:51;93456.47;;;14.65;57.92
23166;BME280;11751;42.700;24.170;2023-11-21T12:00:18;93450.19;;;14.76;58.51
23166;BME280;11751;42.700;24.170;2023-11-21T12:02:55;93450.72;;;14.63;57.70
23166;BME280;11751;42.700;24.170;2023-11-21T12:05:25;93454.03;;;14.80;57.36
23166;BME280;11751;42.700;24.170;2023-11-21T12:07:55;93448.91;;;14.67;57.42
23166;BME280;11751;42.700;24.170;2023-11-21T12:10:24;93448.88;;;14.77;56.89
23166;BME280;11751;42.700;24.170;2023-11-21T12:13:01;93432.31;;;14.92;56.51
23166;BME280;11751;42.700;24.170;2023-11-21T12:15:28;93427.03;;;15.08;55.96
23166;BME280;11751;42.700;24.170;2023-11-21T12:17:57;93423.44;;;15.17;54.84
23166;BME280;11751;42.700;24.170;2023-11-21T12:20:24;93411.97;;;15.24;54.99
23166;BME280;11751;42.700;24.170;2023-11-21T12:22:54;93424.00;;;15.25;55.65
23166;BME280;11751;42.700;24.170;2023-11-21T12:25:24;93428.81;;;15.34;55.51
23166;BME280;11751;42.700;24.170;2023-11-21T12:27:52;93424.53;;;15.33;54.99
23166;BME280;11751;42.700;24.170;2023-11-21T12:30:22;93409.84;;;15.34;55.42
23166;BME280;11751;42.700;24.170;2023-11-21T12:32:52;93411.78;;;15.32;55.51
23166;BME280;11751;42.700;24.170;2023-11-21T12:35:24;93406.25;;;15.34;54.53
23166;BME280;11751;42.700;24.170;2023-11-21T12:37:51;93404.66;;;15.31;52.88
23166;BME280;11751;42.700;24.170;2023-11-21T12:40:17;93409.09;;;15.34;53.70
23166;BME280;11751;42.700;24.170;2023-11-21T12:42:45;93407.16;;;15.36;53.30
23166;BME280;11751;42.700;24.170;2023-11-21T12:47:54;93411.19;;;15.24;53.98
23166;BME280;11751;42.700;24.170;2023-11-21T12:50:24;93412.16;;;15.17;54.50
23166;BME280;11751;42.700;24.170;2023-11-21T12:52:57;93417.78;;;15.17;56.14
23166;BME280;11751;42.700;24.170;2023-11-21T12:55:23;93419.63;;;14.82;58.50
23166;BME280;11751;42.700;24.170;2023-11-21T12:57:52;93426.97;;;14.66;57.63
23166;BME280;11751;42.700;24.170;2023-11-21T13:00:27;93431.63;;;14.52;58.96
23166;BME280;11751;42.700;24.170;2023-11-21T13:02:54;93439.63;;;14.46;58.88
23166;BME280;11751;42.700;24.170;2023-11-21T13:05:30;93437.03;;;14.39;59.17